createdAt,value
2023-05-02T00:00:05.450Z,14.40
2023-05-02T00:02:34.505Z,15.63
2023-05-02T00:05:05.252Z,14.10
2023-05-02T00:07:34.063Z,15.33
2023-05-02T00:10:03.400Z,15.47
2023-05-02T00:12:32.657Z,15.80
2023-05-02T00:15:01.270Z,15.40
2023-05-02T00:17:29.890Z,13.63
2023-05-02T00:19:58.704Z,13.13
2023-05-02T00:22:28.813Z,14.13
2023-05-02T00:24:58.511Z,14.07
2023-05-02T00:27:27.033Z,14.00
2023-05-02T00:29:55.935Z,12.83
2023-05-02T00:32:24.574Z,12.20
2023-05-02T00:34:53.335Z,12.07
2023-05-02T00:37:21.865Z,13.00
2023-05-02T00:39:51.764Z,10.93
2023-05-02T00:42:20.288Z,12.23
2023-05-02T00:44:49.008Z,11.83
2023-05-02T00:47:17.553Z,11.40
2023-05-02T00:49:46.428Z,10.80
2023-05-02T00:52:15.228Z,11.87
2023-05-02T00:54:44.733Z,11.10
2023-05-02T00:57:14.660Z,9.00
2023-05-02T00:59:43.907Z,8.23
2023-05-02T01:02:31.871Z,8.10
2023-05-02T01:05:05.658Z,7.17
2023-05-02T01:07:55.560Z,5.70
2023-05-02T01:10:31.561Z,5.63
2023-05-02T01:13:07.862Z,6.53
2023-05-02T01:15:39.476Z,6.33
2023-05-02T01:18:11.348Z,5.87
2023-05-02T01:20:44.675Z,6.00
2023-05-02T01:23:23.538Z,4.87
2023-05-02T01:26:04.272Z,5.53
2023-05-02T01:28:56.648Z,4.67
2023-05-02T01:31:27.343Z,4.37
2023-05-02T01:33:57.807Z,3.33
2023-05-02T01:36:31.123Z,3.17
2023-05-02T01:39:02.703Z,2.70
2023-05-02T01:41:33.440Z,2.67
2023-05-02T01:44:04.623Z,2.60
2023-05-02T01:46:37.051Z,2.03
2023-05-02T01:49:09.210Z,2.30
2023-05-02T01:51:43.991Z,2.20
2023-05-02T01:54:16.069Z,2.47
2023-05-02T01:56:46.467Z,1.77
2023-05-02T01:59:23.460Z,2.27
2023-05-02T02:01:53.625Z,3.03
2023-05-02T02:04:22.723Z,2.57
2023-05-02T02:06:56.605Z,2.80
2023-05-02T02:09:25.291Z,2.93
2023-05-02T02:11:57.771Z,3.33
2023-05-02T02:14:34.653Z,2.67
2023-05-02T02:17:06.318Z,2.53
2023-05-02T02:19:36.003Z,2.60
2023-05-02T02:22:06.840Z,2.93
2023-05-02T02:24:38.100Z,2.37
2023-05-02T02:27:06.608Z,2.00
2023-05-02T02:29:37.196Z,1.97
2023-05-02T02:32:05.873Z,2.13
2023-05-02T02:34:34.406Z,1.97
2023-05-02T02:37:06.700Z,1.50
2023-05-02T02:39:45.258Z,2.00
2023-05-02T02:42:19.203Z,2.10
2023-05-02T02:44:56.881Z,1.40
2023-05-02T02:47:33.239Z,1.67
2023-05-02T02:50:14.819Z,1.63
2023-05-02T02:52:53.427Z,1.23
2023-05-02T02:55:31.566Z,1.20
2023-05-02T02:58:05.090Z,1.60
2023-05-02T03:00:36.818Z,1.57
2023-05-02T03:03:08.240Z,1.50
2023-05-02T03:05:37.300Z,1.00
2023-05-02T03:08:06.264Z,1.27
2023-05-02T03:10:35.391Z,1.30
2023-05-02T03:13:04.000Z,1.43
2023-05-02T03:16:05.612Z,1.50
2023-05-02T03:18:34.619Z,1.70
2023-05-02T03:21:03.177Z,1.60
2023-05-02T03:23:32.103Z,1.10
2023-05-02T03:26:00.740Z,1.40
2023-05-02T03:28:29.411Z,1.43
2023-05-02T03:31:00.460Z,1.80
2023-05-02T03:33:29.576Z,1.30
2023-05-02T03:35:58.120Z,1.17
2023-05-02T03:38:27.153Z,1.57
2023-05-02T03:40:58.655Z,1.10
2023-05-02T03:43:28.200Z,1.13
2023-05-02T03:45:57.387Z,1.50
2023-05-02T03:48:28.282Z,1.30
2023-05-02T03:50:57.338Z,1.67
2023-05-02T03:53:26.245Z,1.20
2023-05-02T03:55:59.644Z,1.10
2023-05-02T03:58:39.542Z,1.53
2023-05-02T04:01:15.671Z,1.57
2023-05-02T04:03:47.901Z,1.60
2023-05-02T04:06:19.350Z,1.50
2023-05-02T04:08:54.170Z,1.57
2023-05-02T04:11:29.941Z,1.90
2023-05-02T04:13:58.872Z,1.30
2023-05-02T04:16:27.539Z,2.33
2023-05-02T04:18:57.609Z,1.87
2023-05-02T04:21:27.650Z,1.70
2023-05-02T04:23:56.767Z,1.90
2023-05-02T04:26:27.068Z,1.93
2023-05-02T04:29:01.422Z,1.30
2023-05-02T04:31:30.346Z,1.63
2023-05-02T04:34:00.522Z,2.00
2023-05-02T04:36:34.028Z,1.17
2023-05-02T04:39:03.732Z,1.37
2023-05-02T04:41:35.477Z,1.10
2023-05-02T04:44:07.562Z,1.77
2023-05-02T04:46:37.761Z,1.83
2023-05-02T04:49:07.733Z,2.03
2023-05-02T04:51:36.240Z,1.67
2023-05-02T04:54:05.091Z,1.80
2023-05-02T04:56:33.635Z,2.03
2023-05-02T04:59:02.145Z,1.90
2023-05-02T05:01:32.508Z,2.23
2023-05-02T05:04:02.893Z,1.80
2023-05-02T05:06:33.044Z,1.67
2023-05-02T05:09:02.542Z,1.43
2023-05-02T05:11:31.278Z,2.03
2023-05-02T05:14:00.722Z,1.50
2023-05-02T05:16:30.558Z,1.97
2023-05-02T05:18:59.710Z,2.10
2023-05-02T05:21:28.425Z,1.57
2023-05-02T05:23:59.424Z,2.13
2023-05-02T05:26:30.552Z,1.87
2023-05-02T05:28:59.931Z,2.20
2023-05-02T05:31:33.591Z,2.60
2023-05-02T05:34:04.500Z,2.43
2023-05-02T05:36:33.444Z,2.40
2023-05-02T05:39:05.273Z,2.20
2023-05-02T05:41:35.468Z,2.50
2023-05-02T05:44:07.867Z,2.20
2023-05-02T05:46:36.492Z,2.77
2023-05-02T05:49:06.496Z,1.80
2023-05-02T05:51:36.995Z,2.13
2023-05-02T05:54:07.275Z,1.73
2023-05-02T05:56:36.183Z,2.57
2023-05-02T05:59:11.008Z,1.80
2023-05-02T06:01:40.002Z,1.87
2023-05-02T06:04:10.012Z,2.93
2023-05-02T06:06:42.291Z,1.97
2023-05-02T06:09:12.365Z,2.37
2023-05-02T06:11:40.961Z,2.43
2023-05-02T06:14:09.989Z,2.63
2023-05-02T06:16:38.688Z,2.97
2023-05-02T06:19:07.822Z,4.40
2023-05-02T06:21:37.907Z,2.87
2023-05-02T06:24:07.087Z,2.77
2023-05-02T06:26:37.193Z,2.43
2023-05-02T06:29:06.034Z,2.40
2023-05-02T06:31:34.546Z,2.33
2023-05-02T06:34:03.671Z,2.33
2023-05-02T06:36:32.344Z,2.17
2023-05-02T06:39:01.524Z,2.10
2023-05-02T06:41:30.122Z,1.57
2023-05-02T06:44:00.007Z,2.17
2023-05-02T06:46:31.528Z,2.00
2023-05-02T06:49:00.113Z,1.60
2023-05-02T06:51:28.735Z,2.03
2023-05-02T06:53:57.299Z,1.47
2023-05-02T06:56:26.426Z,1.70
2023-05-02T06:58:55.255Z,1.30
2023-05-02T07:01:25.346Z,1.50
2023-05-02T07:03:54.354Z,1.67
2023-05-02T07:06:23.049Z,1.70
2023-05-02T07:08:51.664Z,1.87
2023-05-02T07:11:21.730Z,1.90
2023-05-02T07:13:50.316Z,1.53
2023-05-02T07:16:18.894Z,1.87
2023-05-02T07:18:48.814Z,1.67
2023-05-02T07:21:19.137Z,2.00
2023-05-02T07:23:47.726Z,1.90
2023-05-02T07:26:17.080Z,1.77
2023-05-02T07:28:45.665Z,2.40
2023-05-02T07:31:14.190Z,1.60
2023-05-02T07:33:42.798Z,2.03
2023-05-02T07:36:12.734Z,2.30
2023-05-02T07:38:41.377Z,1.60
2023-05-02T07:41:10.027Z,1.83
2023-05-02T07:43:38.692Z,2.07
2023-05-02T07:46:07.794Z,1.37
2023-05-02T07:48:36.380Z,1.57
2023-05-02T07:51:08.518Z,2.30
2023-05-02T07:53:38.627Z,2.13
2023-05-02T07:56:08.819Z,1.93
2023-05-02T07:58:37.646Z,1.70
2023-05-02T08:01:06.332Z,1.87
2023-05-02T08:03:35.104Z,1.57
2023-05-02T08:06:04.149Z,1.80
2023-05-02T08:08:32.776Z,1.73
2023-05-02T08:11:02.973Z,1.30
2023-05-02T08:13:31.550Z,1.87
2023-05-02T08:16:00.104Z,1.60
2023-05-02T08:18:28.872Z,1.97
2023-05-02T08:20:58.413Z,1.83
2023-05-02T08:23:27.070Z,1.77
2023-05-02T08:25:55.762Z,1.50
2023-05-02T08:28:25.779Z,1.63
2023-05-02T08:30:54.454Z,1.83
2023-05-02T08:33:23.022Z,1.60
2023-05-02T08:35:51.606Z,1.80
2023-05-02T08:38:20.191Z,1.77
2023-05-02T08:40:49.002Z,1.73
2023-05-02T08:43:18.080Z,1.23
2023-05-02T08:45:48.036Z,1.23
2023-05-02T08:48:19.136Z,1.23
2023-05-02T08:50:48.546Z,1.30
2023-05-02T08:53:18.512Z,1.40
2023-05-02T08:55:47.743Z,1.23
2023-05-02T08:58:17.486Z,1.20
2023-05-02T09:00:50.932Z,1.30
2023-05-02T09:03:30.080Z,1.37
2023-05-02T09:06:07.517Z,1.20
2023-05-02T09:08:37.150Z,1.37
2023-05-02T09:11:06.668Z,1.27
2023-05-02T09:13:37.588Z,0.87
2023-05-02T09:16:09.621Z,0.90
2023-05-02T09:18:39.873Z,0.67
2023-05-02T09:21:09.786Z,1.23
2023-05-02T09:23:40.705Z,1.67
2023-05-02T09:26:13.976Z,1.10
2023-05-02T09:28:44.102Z,1.30
2023-05-02T09:31:18.761Z,0.80
2023-05-02T09:33:51.796Z,1.33
2023-05-02T09:36:22.223Z,1.70
2023-05-02T09:38:51.739Z,1.13
2023-05-02T09:41:22.241Z,1.00
2023-05-02T09:43:58.120Z,1.00
2023-05-02T09:46:40.490Z,1.30
2023-05-02T09:49:09.851Z,1.13
2023-05-02T09:51:38.780Z,1.07
2023-05-02T09:54:07.434Z,0.80
2023-05-02T09:56:54.204Z,1.00
2023-05-02T09:59:23.105Z,1.43
2023-05-02T10:02:00.352Z,1.03
2023-05-02T10:04:30.703Z,1.10
2023-05-02T10:07:00.620Z,1.10
2023-05-02T10:09:32.487Z,1.60
2023-05-02T10:12:05.107Z,1.33
2023-05-02T10:14:41.318Z,1.37
2023-05-02T10:17:15.191Z,1.23
2023-05-02T10:19:52.823Z,1.00
2023-05-02T10:22:21.896Z,1.07
2023-05-02T10:24:51.145Z,1.33
2023-05-02T10:27:20.141Z,1.40
2023-05-02T10:29:49.636Z,1.50
2023-05-02T10:32:20.033Z,1.43
2023-05-02T10:34:49.914Z,1.30
2023-05-02T10:37:19.108Z,1.90
2023-05-02T10:39:47.732Z,1.60
2023-05-02T10:42:17.561Z,1.30
2023-05-02T10:44:46.384Z,1.80
2023-05-02T10:47:21.914Z,1.30
2023-05-02T10:49:54.588Z,1.57
2023-05-02T10:52:30.711Z,1.50
2023-05-02T10:55:20.825Z,1.73
2023-05-02T10:58:23.325Z,1.50
2023-05-02T11:00:51.926Z,2.13
2023-05-02T11:03:57.167Z,1.63
2023-05-02T11:06:26.807Z,2.00
2023-05-02T11:09:18.543Z,1.80
2023-05-02T11:11:48.211Z,1.43
2023-05-02T11:14:50.793Z,1.37
2023-05-02T11:17:21.015Z,1.23
2023-05-02T11:20:29.347Z,1.30
2023-05-02T11:23:01.840Z,1.27
2023-05-02T11:25:35.573Z,2.10
2023-05-02T11:28:05.523Z,1.57
2023-05-02T11:30:45.164Z,1.50
2023-05-02T11:33:20.325Z,1.40
2023-05-02T11:35:49.565Z,1.23
2023-05-02T11:38:22.074Z,1.50
2023-05-02T11:40:58.617Z,1.83
2023-05-02T11:43:31.265Z,1.57
2023-05-02T11:46:01.998Z,1.70
2023-05-02T11:48:32.034Z,1.33
2023-05-02T11:51:05.225Z,1.60
2023-05-02T11:53:41.223Z,1.80
2023-05-02T11:56:10.051Z,1.73
2023-05-02T11:58:38.606Z,1.80
2023-05-02T12:01:14.413Z,1.93
2023-05-02T12:03:43.440Z,2.13
2023-05-02T12:06:13.582Z,2.03
2023-05-02T12:08:44.943Z,1.80
2023-05-02T12:11:16.087Z,2.07
2023-05-02T12:13:49.760Z,1.53
2023-05-02T12:16:19.633Z,1.70
2023-05-02T12:18:48.980Z,2.13
2023-05-02T12:21:18.291Z,1.87
2023-05-02T12:23:48.350Z,1.57
2023-05-02T12:26:22.543Z,1.60
2023-05-02T12:28:52.249Z,1.97
2023-05-02T12:31:21.057Z,2.27
2023-05-02T12:33:52.386Z,1.60
2023-05-02T12:36:21.041Z,1.80
2023-05-02T12:38:53.407Z,2.47
2023-05-02T12:41:32.710Z,1.90
2023-05-02T12:44:01.811Z,1.57
2023-05-02T12:46:31.395Z,1.77
2023-05-02T12:49:05.336Z,1.80
2023-05-02T12:51:34.627Z,2.27
2023-05-02T12:54:05.358Z,1.50
2023-05-02T12:56:40.346Z,1.63
2023-05-02T12:59:09.550Z,1.63
2023-05-02T13:01:38.551Z,1.67
2023-05-02T13:04:07.367Z,1.57
2023-05-02T13:06:37.980Z,1.80
2023-05-02T13:09:08.321Z,1.40
2023-05-02T13:11:36.864Z,1.70
2023-05-02T13:14:05.934Z,1.50
2023-05-02T13:16:36.760Z,1.87
2023-05-02T13:19:06.290Z,1.30
2023-05-02T13:21:34.884Z,1.70
2023-05-02T13:24:04.313Z,1.50
2023-05-02T13:26:34.337Z,1.60
2023-05-02T13:29:02.990Z,1.23
2023-05-02T13:31:31.621Z,1.80
2023-05-02T13:34:00.252Z,1.87
2023-05-02T13:36:28.833Z,1.80
2023-05-02T13:38:57.710Z,1.87
2023-05-02T13:41:26.289Z,2.00
2023-05-02T13:43:56.922Z,1.60
2023-05-02T13:46:25.794Z,1.60
2023-05-02T13:48:54.363Z,2.00
2023-05-02T13:51:24.701Z,1.37
2023-05-02T13:53:53.231Z,1.50
2023-05-02T13:56:21.868Z,2.13
2023-05-02T13:58:50.457Z,1.80
2023-05-02T14:01:20.427Z,1.43
2023-05-02T14:03:49.138Z,1.30
2023-05-02T14:06:17.802Z,1.20
2023-05-02T14:08:46.428Z,1.83
2023-05-02T14:11:15.029Z,0.80
2023-05-02T14:13:43.560Z,1.33
2023-05-02T14:16:12.338Z,1.40
2023-05-02T14:18:42.535Z,1.33
2023-05-02T14:21:11.129Z,1.30
2023-05-02T14:23:39.743Z,1.10
2023-05-02T14:26:08.285Z,1.67
2023-05-02T14:28:38.320Z,1.10
2023-05-02T14:31:07.946Z,1.70
2023-05-02T14:33:36.676Z,1.30
2023-05-02T14:36:06.987Z,1.50
2023-05-02T14:38:35.617Z,1.63
2023-05-02T14:41:04.404Z,1.33
2023-05-02T14:43:32.953Z,1.40
2023-05-02T14:46:02.713Z,1.30
2023-05-02T14:48:31.267Z,1.20
2023-05-02T14:51:01.272Z,1.60
2023-05-02T14:53:31.364Z,2.10
2023-05-02T14:55:59.901Z,1.50
2023-05-02T14:58:28.547Z,1.37
2023-05-02T15:00:57.148Z,1.37
2023-05-02T15:03:25.856Z,1.53
2023-05-02T15:05:54.485Z,1.17
2023-05-02T15:08:23.015Z,1.37
2023-05-02T15:10:54.269Z,1.00
2023-05-02T15:13:23.574Z,1.40
2023-05-02T15:15:53.759Z,1.13
2023-05-02T15:18:22.545Z,1.27
2023-05-02T15:20:51.184Z,1.10
2023-05-02T15:23:19.782Z,1.17
2023-05-02T15:25:48.679Z,1.30
2023-05-02T15:28:18.611Z,1.20
2023-05-02T15:30:49.021Z,1.07
2023-05-02T15:33:17.538Z,1.30
2023-05-02T15:35:54.890Z,1.10
2023-05-02T15:38:23.582Z,1.17
2023-05-02T15:40:55.985Z,1.27
2023-05-02T15:43:26.392Z,0.90
2023-05-02T15:45:56.270Z,1.83
2023-05-02T15:48:27.921Z,0.97
2023-05-02T15:50:56.842Z,0.90
2023-05-02T15:53:25.388Z,1.20
2023-05-02T15:55:54.048Z,1.20
2023-05-02T15:58:22.657Z,1.17
2023-05-02T16:00:52.954Z,1.13
2023-05-02T16:03:21.693Z,1.43
2023-05-02T16:05:53.162Z,1.50
2023-05-02T16:08:21.798Z,1.70
2023-05-02T16:10:50.345Z,1.67
2023-05-02T16:13:19.147Z,1.50
2023-05-02T16:15:48.579Z,1.57
2023-05-02T16:18:18.705Z,1.37
2023-05-02T16:20:47.820Z,1.70
2023-05-02T16:23:16.363Z,3.13
2023-05-02T16:25:44.951Z,1.97
2023-05-02T16:28:13.497Z,2.00
2023-05-02T16:30:42.068Z,1.10
2023-05-02T16:33:10.840Z,1.10
2023-05-02T16:35:40.722Z,1.10
2023-05-02T16:38:09.263Z,1.20
2023-05-02T16:40:37.825Z,1.47
2023-05-02T16:43:06.376Z,1.50
2023-05-02T16:45:34.917Z,1.27
2023-05-02T16:48:03.499Z,1.30
2023-05-02T16:50:32.073Z,1.10
2023-05-02T16:53:02.115Z,1.30
2023-05-02T16:55:31.240Z,1.00
2023-05-02T16:57:59.773Z,0.80
2023-05-02T17:00:28.345Z,1.03
2023-05-02T17:02:57.036Z,1.00
2023-05-02T17:05:26.195Z,1.17
2023-05-02T17:07:54.844Z,0.80
2023-05-02T17:10:24.840Z,1.13
2023-05-02T17:12:55.948Z,1.07
2023-05-02T17:15:24.698Z,1.10
2023-05-02T17:17:53.502Z,1.20
2023-05-02T17:20:22.132Z,1.00
2023-05-02T17:22:51.233Z,0.90
2023-05-02T17:25:19.912Z,1.30
2023-05-02T17:27:49.827Z,0.87
2023-05-02T17:30:18.448Z,0.83
2023-05-02T17:32:47.019Z,1.10
2023-05-02T17:35:16.467Z,0.77
2023-05-02T17:37:45.053Z,1.33
2023-05-02T17:40:13.972Z,1.10
2023-05-02T17:42:44.528Z,0.93
2023-05-02T17:45:15.049Z,1.10
2023-05-02T17:47:43.732Z,1.10
2023-05-02T17:50:14.206Z,1.10
2023-05-02T17:52:42.804Z,0.70
2023-05-02T17:55:12.007Z,1.00
2023-05-02T17:57:40.706Z,0.87
2023-05-02T18:00:10.550Z,0.97
2023-05-02T18:02:40.536Z,1.10
2023-05-02T18:05:09.611Z,1.10
2023-05-02T18:07:38.225Z,0.90
2023-05-02T18:10:07.848Z,0.83
2023-05-02T18:12:36.525Z,1.33
2023-05-02T18:15:06.157Z,1.17
2023-05-02T18:17:35.082Z,0.83
2023-05-02T18:20:06.441Z,0.80
2023-05-02T18:22:35.073Z,1.00
2023-05-02T18:25:04.000Z,1.10
2023-05-02T18:27:33.529Z,0.73
2023-05-02T18:30:02.104Z,1.27
2023-05-02T18:32:31.574Z,1.10
2023-05-02T18:35:00.414Z,1.00
2023-05-02T18:37:31.529Z,0.77
2023-05-02T18:40:00.194Z,0.80
2023-05-02T18:42:28.874Z,0.97
2023-05-02T18:44:57.392Z,0.73
2023-05-02T18:47:26.246Z,0.90
2023-05-02T18:49:56.381Z,0.77
2023-05-02T18:52:25.764Z,0.90
2023-05-02T18:54:55.718Z,0.60
2023-05-02T18:57:24.493Z,0.90
2023-05-02T18:59:53.044Z,0.97
2023-05-02T19:02:22.533Z,1.40
2023-05-02T19:04:51.107Z,1.43
2023-05-02T19:07:19.698Z,0.80
2023-05-02T19:09:48.256Z,0.83
2023-05-02T19:12:18.142Z,0.93
2023-05-02T19:14:47.890Z,0.90
2023-05-02T19:17:16.494Z,1.10
2023-05-02T19:19:46.689Z,1.30
2023-05-02T19:22:15.559Z,1.10
2023-05-02T19:24:44.150Z,0.67
2023-05-02T19:27:12.801Z,0.90
2023-05-02T19:29:42.709Z,1.17
2023-05-02T19:32:11.277Z,1.47
2023-05-02T19:34:39.841Z,1.00
2023-05-02T19:37:08.569Z,0.90
2023-05-02T19:39:37.104Z,1.43
2023-05-02T19:42:05.823Z,1.00
2023-05-02T19:44:34.359Z,1.13
2023-05-02T19:47:04.389Z,1.00
2023-05-02T19:49:32.911Z,1.07
2023-05-02T19:52:01.523Z,0.90
2023-05-02T19:54:30.615Z,0.90
2023-05-02T19:56:59.143Z,1.00
2023-05-02T19:59:27.676Z,0.97
2023-05-02T20:01:56.333Z,0.83
2023-05-02T20:04:27.900Z,1.00
2023-05-02T20:06:56.580Z,1.10
2023-05-02T20:09:25.258Z,0.83
2023-05-02T20:11:53.757Z,1.10
2023-05-02T20:14:22.339Z,0.90
2023-05-02T20:16:50.936Z,1.77
2023-05-02T20:19:21.895Z,1.33
2023-05-02T20:21:52.115Z,1.07
2023-05-02T20:24:20.638Z,1.23
2023-05-02T20:26:49.330Z,1.00
2023-05-02T20:29:17.863Z,1.07
2023-05-02T20:31:46.433Z,0.90
2023-05-02T20:34:15.189Z,1.20
2023-05-02T20:36:43.745Z,1.00
2023-05-02T20:39:14.256Z,1.40
2023-05-02T20:41:43.254Z,1.53
2023-05-02T20:44:11.808Z,0.97
2023-05-02T20:46:40.511Z,1.30
2023-05-02T20:49:09.207Z,1.40
2023-05-02T20:51:37.748Z,1.37
2023-05-02T20:54:06.461Z,1.50
2023-05-02T20:56:36.422Z,1.07
2023-05-02T20:59:05.070Z,1.07
2023-05-02T21:01:33.909Z,1.37
2023-05-02T21:04:03.458Z,1.23
2023-05-02T21:06:32.620Z,1.07
2023-05-02T21:09:02.044Z,1.17
2023-05-02T21:11:31.334Z,1.30
2023-05-02T21:14:01.246Z,1.57
2023-05-02T21:16:29.919Z,1.10
2023-05-02T21:18:58.463Z,1.40
2023-05-02T21:21:26.995Z,1.37
2023-05-02T21:23:56.013Z,1.53
2023-05-02T21:26:24.586Z,1.70
2023-05-02T21:28:53.819Z,1.33
2023-05-02T21:31:23.929Z,1.30
2023-05-02T21:33:52.515Z,1.73
2023-05-02T21:36:21.088Z,1.40
2023-05-02T21:38:50.384Z,1.10
2023-05-02T21:41:18.962Z,1.43
2023-05-02T21:43:47.524Z,1.30
2023-05-02T21:46:16.073Z,1.33
2023-05-02T21:48:46.083Z,1.50
2023-05-02T21:51:14.817Z,1.27
2023-05-02T21:53:43.454Z,1.50
2023-05-02T21:56:12.282Z,1.47
2023-05-02T21:58:40.796Z,1.67
2023-05-02T22:01:09.363Z,1.90
2023-05-02T22:03:39.030Z,1.73
2023-05-02T22:06:09.478Z,1.77
2023-05-02T22:08:38.195Z,1.63
2023-05-02T22:11:09.274Z,1.53
2023-05-02T22:13:37.972Z,1.50
2023-05-02T22:16:08.249Z,1.33
2023-05-02T22:18:37.112Z,1.60
2023-05-02T22:21:08.228Z,1.60
2023-05-02T22:23:38.164Z,1.40
2023-05-02T22:26:06.782Z,1.97
2023-05-02T22:28:35.670Z,3.33
2023-05-02T22:31:04.279Z,2.30
2023-05-02T22:33:32.767Z,2.33
2023-05-02T22:36:01.392Z,2.70
2023-05-02T22:38:29.977Z,1.93
2023-05-02T22:40:59.906Z,1.30
2023-05-02T22:43:28.428Z,1.83
2023-05-02T22:45:57.037Z,1.60
2023-05-02T22:48:25.892Z,1.70
2023-05-02T22:50:55.108Z,1.43
2023-05-02T22:53:23.655Z,2.00
2023-05-02T22:55:52.438Z,1.93
2023-05-02T22:58:22.338Z,1.70
2023-05-02T23:00:51.133Z,1.43
2023-05-02T23:03:19.742Z,1.60
2023-05-02T23:05:48.632Z,1.57
2023-05-02T23:08:17.118Z,1.73
2023-05-02T23:10:45.910Z,2.30
2023-05-02T23:13:14.509Z,1.70
2023-05-02T23:15:44.719Z,2.23
2023-05-02T23:18:13.306Z,1.63
2023-05-02T23:20:41.837Z,2.50
2023-05-02T23:23:10.512Z,1.80
2023-05-02T23:25:39.742Z,1.80
2023-05-02T23:28:08.320Z,1.90
2023-05-02T23:30:40.108Z,1.50
2023-05-02T23:33:10.213Z,2.30
2023-05-02T23:35:39.039Z,2.07
2023-05-02T23:38:08.211Z,2.10
2023-05-02T23:40:36.958Z,2.10
2023-05-02T23:43:07.449Z,1.90
2023-05-02T23:45:36.059Z,1.83
2023-05-02T23:48:04.822Z,1.83
2023-05-02T23:50:34.778Z,2.00
2023-05-02T23:53:03.374Z,2.30
2023-05-02T23:55:32.794Z,2.27
2023-05-02T23:58:01.459Z,2.07
